GCTS/TFS METAR and TAF weather

Enter ICAO airport designator
Station Type Date Time Source
GCTS METAR 2021/09/16 10:00 UTC NOAA

GCTS 161000Z 28005KT 190V330 9999 FEW030 26/18 Q1020 WS R07 NOSIG


Station Type Date Time Source
GCTS Decoded METAR 2021/09/16 10:00 UTC NOAA

Tenerife Sur, Spain (GCTS) 28-03N 016-34W 77M
Sep 16, 2021 - 06:00 AM EDT / 2021.09.16 1000 UTC
Wind: from the W (280 degrees) at 6 MPH (5 KT) (direction variable):0
Visibility: greater than 7 mile(s):0
Sky conditions: mostly clear
Temperature: 78 F (26 C)
Dew Point: 64 F (18 C)
Relative Humidity: 61%
Pressure (altimeter): 30.12 in. Hg (1020 hPa)
ob: GCTS 161000Z 28005KT 190V330 9999 FEW030 26/18 Q1020 WS R07 NOSIG
cycle: 10

Station Type Date Time Source
GCTS TAF 2021/09/16 10:06 UTC NOAA

TAF
AMD TAF
AMD GCTS 161001Z 1610/1709 10018KT 9999 FEW035 TX28/1614Z TN20/1706Z
TEMPO 1610/1613 27007KT PROB30
TEMPO 1612/1620 RADZ

Example: see airport list